sensor_id;sensor_type;location;lat;lon;timestamp;temperature;humidity
16102;DHT22;56411;52.964;10.540;2023-06-14T00:01:44;14.60;99.90
16102;DHT22;56411;52.964;10.540;2023-06-14T00:04:12;14.60;99.90
16102;DHT22;56411;52.964;10.540;2023-06-14T00:06:42;14.50;99.90
16102;DHT22;56411;52.964;10.540;2023-06-14T00:09:10;14.50;99.90
16102;DHT22;56411;52.964;10.540;2023-06-14T00:11:38;14.50;99.90
16102;DHT22;56411;52.964;10.540;2023-06-14T00:14:05;14.40;99.90
16102;DHT22;56411;52.964;10.540;2023-06-14T00:16:32;14.40;99.90
16102;DHT22;56411;52.964;10.540;2023-06-14T00:19:01;14.40;99.90
16102;DHT22;56411;52.964;10.540;2023-06-14T00:21:31;14.40;99.90
16102;DHT22;56411;52.964;10.540;2023-06-14T00:23:59;14.30;99.90
16102;DHT22;56411;52.964;10.540;2023-06-14T00:26:25;14.20;99.90
16102;DHT22;56411;52.964;10.540;2023-06-14T00:28:53;14.20;99.90
16102;DHT22;56411;52.964;10.540;2023-06-14T00:31:20;14.20;99.90
16102;DHT22;56411;52.964;10.540;2023-06-14T00:33:47;14.10;99.90
16102;DHT22;56411;52.964;10.540;2023-06-14T00:36:14;14.10;99.90
16102;DHT22;56411;52.964;10.540;2023-06-14T00:38:42;14.00;99.90
16102;DHT22;56411;52.964;10.540;2023-06-14T00:41:09;14.00;99.90
16102;DHT22;56411;52.964;10.540;2023-06-14T00:43:36;14.00;99.90
16102;DHT22;56411;52.964;10.540;2023-06-14T00:46:03;14.00;99.90
16102;DHT22;56411;52.964;10.540;2023-06-14T00:48:30;14.00;99.90
16102;DHT22;56411;52.964;10.540;2023-06-14T00:50:58;13.90;99.90
16102;DHT22;56411;52.964;10.540;2023-06-14T00:53:28;13.80;99.90
16102;DHT22;56411;52.964;10.540;2023-06-14T00:55:57;13.80;99.90
16102;DHT22;56411;52.964;10.540;2023-06-14T00:58:23;13.80;99.90
16102;DHT22;56411;52.964;10.540;2023-06-14T01:00:51;13.80;99.90
16102;DHT22;56411;52.964;10.540;2023-06-14T01:03:18;13.70;99.90
16102;DHT22;56411;52.964;10.540;2023-06-14T01:05:48;13.60;99.90
16102;DHT22;56411;52.964;10.540;2023-06-14T01:08:35;13.60;99.90
16102;DHT22;56411;52.964;10.540;2023-06-14T01:11:11;13.50;99.90
16102;DHT22;56411;52.964;10.540;2023-06-14T01:13:40;13.60;99.90
16102;DHT22;56411;52.964;10.540;2023-06-14T01:16:10;13.50;99.90
16102;DHT22;56411;52.964;10.540;2023-06-14T01:18:37;13.50;99.90
16102;DHT22;56411;52.964;10.540;2023-06-14T01:21:20;13.40;99.90
16102;DHT22;56411;52.964;10.540;2023-06-14T01:23:48;13.30;99.90
16102;DHT22;56411;52.964;10.540;2023-06-14T01:26:18;13.20;99.90
16102;DHT22;56411;52.964;10.540;2023-06-14T01:28:46;13.20;99.90
16102;DHT22;56411;52.964;10.540;2023-06-14T01:31:17;13.10;99.90
16102;DHT22;56411;52.964;10.540;2023-06-14T01:33:45;13.00;99.90
16102;DHT22;56411;52.964;10.540;2023-06-14T01:36:13;13.00;99.90
16102;DHT22;56411;52.964;10.540;2023-06-14T01:38:42;12.90;99.90
16102;DHT22;56411;52.964;10.540;2023-06-14T01:41:12;12.90;99.90
16102;DHT22;56411;52.964;10.540;2023-06-14T01:43:40;12.80;99.90
16102;DHT22;56411;52.964;10.540;2023-06-14T01:46:08;12.80;99.90
16102;DHT22;56411;52.964;10.540;2023-06-14T01:48:36;12.80;99.90
16102;DHT22;56411;52.964;10.540;2023-06-14T01:51:03;12.90;99.90
16102;DHT22;56411;52.964;10.540;2023-06-14T01:53:30;12.90;99.90
16102;DHT22;56411;52.964;10.540;2023-06-14T01:55:57;12.80;99.90
16102;DHT22;56411;52.964;10.540;2023-06-14T01:58:26;12.70;99.90
16102;DHT22;56411;52.964;10.540;2023-06-14T02:00:52;12.70;99.90
16102;DHT22;56411;52.964;10.540;2023-06-14T02:03:22;12.60;99.90
16102;DHT22;56411;52.964;10.540;2023-06-14T02:05:50;12.60;99.90
16102;DHT22;56411;52.964;10.540;2023-06-14T02:08:17;12.60;99.90
16102;DHT22;56411;52.964;10.540;2023-06-14T02:10:44;12.60;99.90
16102;DHT22;56411;52.964;10.540;2023-06-14T02:13:11;12.50;99.90
16102;DHT22;56411;52.964;10.540;2023-06-14T02:15:39;12.40;99.90
16102;DHT22;56411;52.964;10.540;2023-06-14T02:18:09;12.40;99.90
16102;DHT22;56411;52.964;10.540;2023-06-14T02:20:37;12.40;99.90
16102;DHT22;56411;52.964;10.540;2023-06-14T02:23:04;12.30;99.90
16102;DHT22;56411;52.964;10.540;2023-06-14T02:25:33;12.20;99.90
16102;DHT22;56411;52.964;10.540;2023-06-14T02:28:00;12.20;99.90
16102;DHT22;56411;52.964;10.540;2023-06-14T02:30:27;12.10;99.90
16102;DHT22;56411;52.964;10.540;2023-06-14T02:32:55;12.10;99.90
16102;DHT22;56411;52.964;10.540;2023-06-14T02:35:22;12.00;99.90
16102;DHT22;56411;52.964;10.540;2023-06-14T02:37:52;12.00;99.90
16102;DHT22;56411;52.964;10.540;2023-06-14T02:40:19;12.10;99.90
16102;DHT22;56411;52.964;10.540;2023-06-14T02:42:46;12.10;99.90
16102;DHT22;56411;52.964;10.540;2023-06-14T02:45:13;12.10;99.90
16102;DHT22;56411;52.964;10.540;2023-06-14T02:47:40;12.20;99.90
16102;DHT22;56411;52.964;10.540;2023-06-14T02:50:10;12.10;99.90
16102;DHT22;56411;52.964;10.540;2023-06-14T02:52:37;12.10;99.90
16102;DHT22;56411;52.964;10.540;2023-06-14T02:55:04;12.20;99.90
16102;DHT22;56411;52.964;10.540;2023-06-14T02:57:31;12.20;99.90
16102;DHT22;56411;52.964;10.540;2023-06-14T02:59:58;12.20;99.90
16102;DHT22;56411;52.964;10.540;2023-06-14T03:02:26;12.10;99.90
16102;DHT22;56411;52.964;10.540;2023-06-14T03:04:53;12.10;99.90
16102;DHT22;56411;52.964;10.540;2023-06-14T03:07:21;12.10;99.90
16102;DHT22;56411;52.964;10.540;2023-06-14T03:09:49;12.20;99.90
16102;DHT22;56411;52.964;10.540;2023-06-14T03:12:16;12.20;99.90
16102;DHT22;56411;52.964;10.540;2023-06-14T03:14:43;12.20;99.90
16102;DHT22;56411;52.964;10.540;2023-06-14T03:17:11;12.20;99.90
16102;DHT22;56411;52.964;10.540;2023-06-14T03:19:38;12.20;99.90
16102;DHT22;56411;52.964;10.540;2023-06-14T03:22:06;12.30;99.90
16102;DHT22;56411;52.964;10.540;2023-06-14T03:24:35;12.30;99.90
16102;DHT22;56411;52.964;10.540;2023-06-14T03:27:07;12.30;99.90
16102;DHT22;56411;52.964;10.540;2023-06-14T03:29:35;12.30;99.90
16102;DHT22;56411;52.964;10.540;2023-06-14T03:32:03;12.30;99.90
16102;DHT22;56411;52.964;10.540;2023-06-14T03:34:30;12.30;99.90
16102;DHT22;56411;52.964;10.540;2023-06-14T03:36:57;12.30;99.90
16102;DHT22;56411;52.964;10.540;2023-06-14T03:39:24;12.30;99.90
16102;DHT22;56411;52.964;10.540;2023-06-14T03:41:52;12.40;99.90
16102;DHT22;56411;52.964;10.540;2023-06-14T03:44:19;12.50;99.90
16102;DHT22;56411;52.964;10.540;2023-06-14T03:46:46;12.50;99.90
16102;DHT22;56411;52.964;10.540;2023-06-14T03:49:14;12.50;99.90
16102;DHT22;56411;52.964;10.540;2023-06-14T03:51:41;12.50;99.90
16102;DHT22;56411;52.964;10.540;2023-06-14T03:54:09;12.50;99.90
16102;DHT22;56411;52.964;10.540;2023-06-14T03:56:35;12.60;99.90
16102;DHT22;56411;52.964;10.540;2023-06-14T03:59:04;12.70;99.90
16102;DHT22;56411;52.964;10.540;2023-06-14T04:01:31;12.70;99.90
16102;DHT22;56411;52.964;10.540;2023-06-14T04:03:59;12.70;99.90
16102;DHT22;56411;52.964;10.540;2023-06-14T04:06:26;12.80;99.90
16102;DHT22;56411;52.964;10.540;2023-06-14T04:08:58;12.80;99.90
16102;DHT22;56411;52.964;10.540;2023-06-14T04:11:28;12.90;99.90
16102;DHT22;56411;52.964;10.540;2023-06-14T04:13:55;12.90;99.90
16102;DHT22;56411;52.964;10.540;2023-06-14T04:16:23;13.00;99.90
16102;DHT22;56411;52.964;10.540;2023-06-14T04:18:50;13.10;99.90
16102;DHT22;56411;52.964;10.540;2023-06-14T04:21:18;13.10;99.90
16102;DHT22;56411;52.964;10.540;2023-06-14T04:23:45;13.20;99.90
16102;DHT22;56411;52.964;10.540;2023-06-14T04:26:13;13.20;99.90
16102;DHT22;56411;52.964;10.540;2023-06-14T04:28:41;13.20;99.90
16102;DHT22;56411;52.964;10.540;2023-06-14T04:31:10;13.30;99.90
16102;DHT22;56411;52.964;10.540;2023-06-14T04:33:39;13.30;99.90
16102;DHT22;56411;52.964;10.540;2023-06-14T04:36:11;13.40;99.90
16102;DHT22;56411;52.964;10.540;2023-06-14T04:38:38;13.50;99.90
16102;DHT22;56411;52.964;10.540;2023-06-14T04:41:06;13.60;99.90
16102;DHT22;56411;52.964;10.540;2023-06-14T04:43:37;13.70;99.90
16102;DHT22;56411;52.964;10.540;2023-06-14T04:46:05;13.80;99.90
16102;DHT22;56411;52.964;10.540;2023-06-14T04:48:36;13.80;99.90
16102;DHT22;56411;52.964;10.540;2023-06-14T04:51:05;13.90;99.90
16102;DHT22;56411;52.964;10.540;2023-06-14T04:53:32;13.90;99.90
16102;DHT22;56411;52.964;10.540;2023-06-14T04:55:59;14.00;99.90
16102;DHT22;56411;52.964;10.540;2023-06-14T04:58:28;14.10;99.90
16102;DHT22;56411;52.964;10.540;2023-06-14T05:00:56;14.10;99.90
16102;DHT22;56411;52.964;10.540;2023-06-14T05:03:24;14.10;99.90
16102;DHT22;56411;52.964;10.540;2023-06-14T05:05:52;14.10;99.90
16102;DHT22;56411;52.964;10.540;2023-06-14T05:08:20;14.10;99.90
16102;DHT22;56411;52.964;10.540;2023-06-14T05:10:49;14.20;99.90
16102;DHT22;56411;52.964;10.540;2023-06-14T05:13:17;14.30;99.90
16102;DHT22;56411;52.964;10.540;2023-06-14T05:15:44;14.30;99.90
16102;DHT22;56411;52.964;10.540;2023-06-14T05:18:12;14.30;99.90
16102;DHT22;56411;52.964;10.540;2023-06-14T05:20:41;14.40;99.90
16102;DHT22;56411;52.964;10.540;2023-06-14T05:23:08;14.40;99.90
16102;DHT22;56411;52.964;10.540;2023-06-14T05:25:42;14.50;99.90
16102;DHT22;56411;52.964;10.540;2023-06-14T05:28:10;14.60;99.90
16102;DHT22;56411;52.964;10.540;2023-06-14T05:30:38;14.70;99.90
16102;DHT22;56411;52.964;10.540;2023-06-14T05:33:05;14.70;99.90
16102;DHT22;56411;52.964;10.540;2023-06-14T05:35:32;14.80;99.90
16102;DHT22;56411;52.964;10.540;2023-06-14T05:37:59;14.90;99.90
16102;DHT22;56411;52.964;10.540;2023-06-14T05:40:26;14.90;99.90
16102;DHT22;56411;52.964;10.540;2023-06-14T05:42:55;15.00;99.90
16102;DHT22;56411;52.964;10.540;2023-06-14T05:45:22;15.10;99.90
16102;DHT22;56411;52.964;10.540;2023-06-14T05:47:49;15.10;99.90
16102;DHT22;56411;52.964;10.540;2023-06-14T05:50:16;15.20;99.90
16102;DHT22;56411;52.964;10.540;2023-06-14T05:52:43;15.30;99.90
16102;DHT22;56411;52.964;10.540;2023-06-14T05:55:10;15.30;99.90
16102;DHT22;56411;52.964;10.540;2023-06-14T05:57:38;15.40;99.90
16102;DHT22;56411;52.964;10.540;2023-06-14T06:00:08;15.50;99.90
16102;DHT22;56411;52.964;10.540;2023-06-14T06:02:40;15.50;99.90
16102;DHT22;56411;52.964;10.540;2023-06-14T06:05:08;15.60;99.90
16102;DHT22;56411;52.964;10.540;2023-06-14T06:07:35;15.70;99.90
16102;DHT22;56411;52.964;10.540;2023-06-14T06:10:02;15.70;99.90
16102;DHT22;56411;52.964;10.540;2023-06-14T06:12:29;15.80;99.90
16102;DHT22;56411;52.964;10.540;2023-06-14T06:14:56;15.90;99.90
16102;DHT22;56411;52.964;10.540;2023-06-14T06:17:25;15.90;99.90
16102;DHT22;56411;52.964;10.540;2023-06-14T06:19:52;16.00;99.90
16102;DHT22;56411;52.964;10.540;2023-06-14T06:22:19;16.10;99.90
16102;DHT22;56411;52.964;10.540;2023-06-14T06:24:46;16.10;99.90
16102;DHT22;56411;52.964;10.540;2023-06-14T06:27:13;16.20;99.90
16102;DHT22;56411;52.964;10.540;2023-06-14T06:29:42;16.20;99.90
16102;DHT22;56411;52.964;10.540;2023-06-14T06:32:09;16.30;99.90
16102;DHT22;56411;52.964;10.540;2023-06-14T06:34:38;16.30;99.90
16102;DHT22;56411;52.964;10.540;2023-06-14T06:37:05;16.40;99.90
16102;DHT22;56411;52.964;10.540;2023-06-14T06:39:33;16.50;99.90
16102;DHT22;56411;52.964;10.540;2023-06-14T06:42:00;16.50;99.90
16102;DHT22;56411;52.964;10.540;2023-06-14T06:44:27;16.60;99.90
16102;DHT22;56411;52.964;10.540;2023-06-14T06:46:54;16.70;99.90
16102;DHT22;56411;52.964;10.540;2023-06-14T06:49:21;16.70;99.90
16102;DHT22;56411;52.964;10.540;2023-06-14T06:52:00;16.80;99.90
16102;DHT22;56411;52.964;10.540;2023-06-14T06:54:28;16.80;99.90
16102;DHT22;56411;52.964;10.540;2023-06-14T06:56:55;16.80;99.90
16102;DHT22;56411;52.964;10.540;2023-06-14T06:59:22;16.90;99.90
16102;DHT22;56411;52.964;10.540;2023-06-14T07:01:50;17.00;99.90
16102;DHT22;56411;52.964;10.540;2023-06-14T07:04:17;17.10;99.90
16102;DHT22;56411;52.964;10.540;2023-06-14T07:06:46;17.10;99.90
16102;DHT22;56411;52.964;10.540;2023-06-14T07:09:15;17.10;99.90
16102;DHT22;56411;52.964;10.540;2023-06-14T07:11:43;17.20;99.90
16102;DHT22;56411;52.964;10.540;2023-06-14T07:14:10;17.30;99.90
16102;DHT22;56411;52.964;10.540;2023-06-14T07:16:37;17.30;99.90
16102;DHT22;56411;52.964;10.540;2023-06-14T07:19:04;17.40;99.90
16102;DHT22;56411;52.964;10.540;2023-06-14T07:21:31;17.40;99.90
16102;DHT22;56411;52.964;10.540;2023-06-14T07:23:58;17.50;99.90
16102;DHT22;56411;52.964;10.540;2023-06-14T07:26:27;17.60;99.90
16102;DHT22;56411;52.964;10.540;2023-06-14T07:28:54;17.60;99.90
16102;DHT22;56411;52.964;10.540;2023-06-14T07:31:21;17.70;99.90
16102;DHT22;56411;52.964;10.540;2023-06-14T07:33:48;17.70;99.90
16102;DHT22;56411;52.964;10.540;2023-06-14T07:36:15;17.80;99.90
16102;DHT22;56411;52.964;10.540;2023-06-14T07:38:43;17.90;99.90
16102;DHT22;56411;52.964;10.540;2023-06-14T07:41:10;18.00;99.90
16102;DHT22;56411;52.964;10.540;2023-06-14T07:43:38;18.00;99.90
16102;DHT22;56411;52.964;10.540;2023-06-14T07:46:06;18.10;99.90
16102;DHT22;56411;52.964;10.540;2023-06-14T07:48:33;18.10;99.90
16102;DHT22;56411;52.964;10.540;2023-06-14T07:51:00;18.10;99.90
16102;DHT22;56411;52.964;10.540;2023-06-14T07:53:27;18.20;99.90
16102;DHT22;56411;52.964;10.540;2023-06-14T07:55:56;18.30;99.90
16102;DHT22;56411;52.964;10.540;2023-06-14T07:58:23;18.30;99.90
16102;DHT22;56411;52.964;10.540;2023-06-14T08:00:51;18.40;99.90
16102;DHT22;56411;52.964;10.540;2023-06-14T08:03:18;18.50;99.90
16102;DHT22;56411;52.964;10.540;2023-06-14T08:05:45;18.50;99.90
16102;DHT22;56411;52.964;10.540;2023-06-14T08:08:12;18.50;99.90
16102;DHT22;56411;52.964;10.540;2023-06-14T08:10:39;18.60;99.90
16102;DHT22;56411;52.964;10.540;2023-06-14T08:13:06;18.70;99.90
16102;DHT22;56411;52.964;10.540;2023-06-14T08:15:34;18.70;99.90
16102;DHT22;56411;52.964;10.540;2023-06-14T08:18:03;18.80;99.90
16102;DHT22;56411;52.964;10.540;2023-06-14T08:20:30;18.90;99.90
16102;DHT22;56411;52.964;10.540;2023-06-14T08:22:57;18.90;99.90
16102;DHT22;56411;52.964;10.540;2023-06-14T08:25:24;19.00;99.90
16102;DHT22;56411;52.964;10.540;2023-06-14T08:27:52;19.10;99.90
16102;DHT22;56411;52.964;10.540;2023-06-14T08:30:19;19.10;99.90
16102;DHT22;56411;52.964;10.540;2023-06-14T08:32:46;19.20;99.90
16102;DHT22;56411;52.964;10.540;2023-06-14T08:35:14;19.20;99.90
16102;DHT22;56411;52.964;10.540;2023-06-14T08:37:42;19.30;99.90
16102;DHT22;56411;52.964;10.540;2023-06-14T08:40:19;19.40;99.90
16102;DHT22;56411;52.964;10.540;2023-06-14T08:42:50;19.40;99.90
16102;DHT22;56411;52.964;10.540;2023-06-14T08:45:18;19.40;99.90
16102;DHT22;56411;52.964;10.540;2023-06-14T08:47:45;19.50;99.90
16102;DHT22;56411;52.964;10.540;2023-06-14T08:50:20;19.70;99.90
16102;DHT22;56411;52.964;10.540;2023-06-14T08:52:53;19.70;99.90
16102;DHT22;56411;52.964;10.540;2023-06-14T08:55:21;19.80;99.90
16102;DHT22;56411;52.964;10.540;2023-06-14T08:57:51;19.80;99.90
16102;DHT22;56411;52.964;10.540;2023-06-14T09:00:20;19.90;99.90
16102;DHT22;56411;52.964;10.540;2023-06-14T09:02:47;20.00;99.90
16102;DHT22;56411;52.964;10.540;2023-06-14T09:05:15;20.10;99.90
16102;DHT22;56411;52.964;10.540;2023-06-14T09:07:45;20.10;99.90
16102;DHT22;56411;52.964;10.540;2023-06-14T09:10:15;20.10;99.90
16102;DHT22;56411;52.964;10.540;2023-06-14T09:12:42;20.20;99.90
16102;DHT22;56411;52.964;10.540;2023-06-14T09:15:10;20.30;99.90
16102;DHT22;56411;52.964;10.540;2023-06-14T09:17:38;20.40;99.90
16102;DHT22;56411;52.964;10.540;2023-06-14T09:20:06;20.60;99.90
16102;DHT22;56411;52.964;10.540;2023-06-14T09:22:36;20.60;99.90
16102;DHT22;56411;52.964;10.540;2023-06-14T09:25:06;20.70;99.90
16102;DHT22;56411;52.964;10.540;2023-06-14T09:27:33;20.90;99.90
16102;DHT22;56411;52.964;10.540;2023-06-14T09:30:02;21.10;99.90
16102;DHT22;56411;52.964;10.540;2023-06-14T09:32:29;21.20;99.90
16102;DHT22;56411;52.964;10.540;2023-06-14T09:34:57;21.30;99.90
16102;DHT22;56411;52.964;10.540;2023-06-14T09:37:28;21.40;99.90
16102;DHT22;56411;52.964;10.540;2023-06-14T09:39:56;21.40;99.90
16102;DHT22;56411;52.964;10.540;2023-06-14T09:42:25;21.60;99.90
16102;DHT22;56411;52.964;10.540;2023-06-14T09:44:55;21.60;99.90
16102;DHT22;56411;52.964;10.540;2023-06-14T09:47:23;21.60;99.90
16102;DHT22;56411;52.964;10.540;2023-06-14T09:49:51;21.70;99.90
16102;DHT22;56411;52.964;10.540;2023-06-14T09:52:21;21.50;99.90
16102;DHT22;56411;52.964;10.540;2023-06-14T09:54:48;21.50;99.90
16102;DHT22;56411;52.964;10.540;2023-06-14T09:57:17;21.50;99.90
16102;DHT22;56411;52.964;10.540;2023-06-14T09:59:49;21.70;99.90
16102;DHT22;56411;52.964;10.540;2023-06-14T10:02:22;21.90;99.90
16102;DHT22;56411;52.964;10.540;2023-06-14T10:04:57;22.10;99.90
16102;DHT22;56411;52.964;10.540;2023-06-14T10:07:26;22.30;99.90
16102;DHT22;56411;52.964;10.540;2023-06-14T10:09:57;22.20;99.90
16102;DHT22;56411;52.964;10.540;2023-06-14T10:12:25;22.40;99.90
16102;DHT22;56411;52.964;10.540;2023-06-14T10:14:55;22.40;99.90
16102;DHT22;56411;52.964;10.540;2023-06-14T10:17:30;22.70;99.90
16102;DHT22;56411;52.964;10.540;2023-06-14T10:20:11;22.90;99.90
16102;DHT22;56411;52.964;10.540;2023-06-14T10:22:45;23.10;99.90
16102;DHT22;56411;52.964;10.540;2023-06-14T10:25:26;23.10;99.90
16102;DHT22;56411;52.964;10.540;2023-06-14T10:31:02;23.10;99.90
16102;DHT22;56411;52.964;10.540;2023-06-14T10:33:30;23.30;99.90
16102;DHT22;56411;52.964;10.540;2023-06-14T10:36:08;23.40;99.90
16102;DHT22;56411;52.964;10.540;2023-06-14T10:38:36;23.50;99.90
16102;DHT22;56411;52.964;10.540;2023-06-14T10:41:04;23.50;99.90
16102;DHT22;56411;52.964;10.540;2023-06-14T10:43:32;23.50;99.90
16102;DHT22;56411;52.964;10.540;2023-06-14T10:46:14;23.40;99.90
16102;DHT22;56411;52.964;10.540;2023-06-14T10:48:42;23.50;99.90
16102;DHT22;56411;52.964;10.540;2023-06-14T10:51:16;23.70;99.90
16102;DHT22;56411;52.964;10.540;2023-06-14T10:53:46;23.80;99.90
16102;DHT22;56411;52.964;10.540;2023-06-14T10:56:24;23.90;99.90
16102;DHT22;56411;52.964;10.540;2023-06-14T10:58:53;24.00;99.90
16102;DHT22;56411;52.964;10.540;2023-06-14T11:01:35;24.30;99.90
16102;DHT22;56411;52.964;10.540;2023-06-14T11:04:10;24.40;99.90
16102;DHT22;56411;52.964;10.540;2023-06-14T11:06:46;24.60;99.90
16102;DHT22;56411;52.964;10.540;2023-06-14T11:12:24;24.20;99.90
16102;DHT22;56411;52.964;10.540;2023-06-14T11:14:53;24.60;99.90
16102;DHT22;56411;52.964;10.540;2023-06-14T11:17:21;25.50;99.90
16102;DHT22;56411;52.964;10.540;2023-06-14T11:19:48;25.90;99.90
16102;DHT22;56411;52.964;10.540;2023-06-14T11:22:15;26.10;99.90
16102;DHT22;56411;52.964;10.540;2023-06-14T11:24:43;26.50;99.80
16102;DHT22;56411;52.964;10.540;2023-06-14T11:27:10;27.00;97.90
16102;DHT22;56411;52.964;10.540;2023-06-14T11:29:38;26.60;97.10
16102;DHT22;56411;52.964;10.540;2023-06-14T11:32:07;25.70;98.80
16102;DHT22;56411;52.964;10.540;2023-06-14T11:34:39;25.00;98.80
16102;DHT22;56411;52.964;10.540;2023-06-14T11:37:06;25.00;98.90
16102;DHT22;56411;52.964;10.540;2023-06-14T11:39:33;24.70;99.60
16102;DHT22;56411;52.964;10.540;2023-06-14T11:42:01;24.60;99.40
16102;DHT22;56411;52.964;10.540;2023-06-14T11:44:29;24.60;99.00
16102;DHT22;56411;52.964;10.540;2023-06-14T11:46:56;24.80;99.40
16102;DHT22;56411;52.964;10.540;2023-06-14T11:49:23;25.00;99.10
16102;DHT22;56411;52.964;10.540;2023-06-14T11:51:54;25.20;98.60
16102;DHT22;56411;52.964;10.540;2023-06-14T11:54:21;25.20;98.20
16102;DHT22;56411;52.964;10.540;2023-06-14T11:56:49;25.20;98.50
16102;DHT22;56411;52.964;10.540;2023-06-14T11:59:17;25.90;97.30
16102;DHT22;56411;52.964;10.540;2023-06-14T12:01:44;26.40;97.60
16102;DHT22;56411;52.964;10.540;2023-06-14T12:04:12;27.40;96.60
16102;DHT22;56411;52.964;10.540;2023-06-14T12:06:38;27.20;94.30
16102;DHT22;56411;52.964;10.540;2023-06-14T12:09:08;26.50;94.70
16102;DHT22;56411;52.964;10.540;2023-06-14T12:11:38;26.10;94.70
16102;DHT22;56411;52.964;10.540;2023-06-14T12:14:05;25.50;94.20
16102;DHT22;56411;52.964;10.540;2023-06-14T12:16:33;25.00;94.80
16102;DHT22;56411;52.964;10.540;2023-06-14T12:19:07;24.70;95.00
16102;DHT22;56411;52.964;10.540;2023-06-14T12:21:37;24.50;95.70
16102;DHT22;56411;52.964;10.540;2023-06-14T12:24:07;25.00;94.90
16102;DHT22;56411;52.964;10.540;2023-06-14T12:26:38;26.20;94.70
16102;DHT22;56411;52.964;10.540;2023-06-14T12:29:06;27.90;93.00
16102;DHT22;56411;52.964;10.540;2023-06-14T12:31:33;29.20;90.90
16102;DHT22;56411;52.964;10.540;2023-06-14T12:34:02;30.00;91.00
16102;DHT22;56411;52.964;10.540;2023-06-14T12:36:29;31.20;88.60
16102;DHT22;56411;52.964;10.540;2023-06-14T12:38:57;31.30;84.30
16102;DHT22;56411;52.964;10.540;2023-06-14T12:41:26;30.20;82.30
16102;DHT22;56411;52.964;10.540;2023-06-14T12:43:53;29.10;83.30
16102;DHT22;56411;52.964;10.540;2023-06-14T12:46:20;27.70;83.50
16102;DHT22;56411;52.964;10.540;2023-06-14T12:48:47;26.80;85.60
16102;DHT22;56411;52.964;10.540;2023-06-14T12:51:14;26.30;87.60
16102;DHT22;56411;52.964;10.540;2023-06-14T12:53:41;25.80;87.90
16102;DHT22;56411;52.964;10.540;2023-06-14T12:56:09;25.20;88.80
16102;DHT22;56411;52.964;10.540;2023-06-14T12:58:38;25.20;90.10
16102;DHT22;56411;52.964;10.540;2023-06-14T13:01:05;26.10;90.20
16102;DHT22;56411;52.964;10.540;2023-06-14T13:03:31;27.60;88.00
16102;DHT22;56411;52.964;10.540;2023-06-14T13:06:00;28.60;86.00
16102;DHT22;56411;52.964;10.540;2023-06-14T13:08:27;29.00;84.20
16102;DHT22;56411;52.964;10.540;2023-06-14T13:10:54;28.70;83.80
16102;DHT22;56411;52.964;10.540;2023-06-14T13:13:21;28.00;83.50
16102;DHT22;56411;52.964;10.540;2023-06-14T13:15:49;27.30;84.70
16102;DHT22;56411;52.964;10.540;2023-06-14T13:18:16;26.50;83.50
16102;DHT22;56411;52.964;10.540;2023-06-14T13:20:46;25.90;85.80
16102;DHT22;56411;52.964;10.540;2023-06-14T13:23:13;25.40;86.30
16102;DHT22;56411;52.964;10.540;2023-06-14T13:25:40;25.20;87.50
16102;DHT22;56411;52.964;10.540;2023-06-14T13:28:07;25.40;87.90
16102;DHT22;56411;52.964;10.540;2023-06-14T13:30:35;25.70;88.60
16102;DHT22;56411;52.964;10.540;2023-06-14T13:33:03;25.80;88.70
16102;DHT22;56411;52.964;10.540;2023-06-14T13:35:30;25.70;87.30
16102;DHT22;56411;52.964;10.540;2023-06-14T13:37:57;25.50;88.40
16102;DHT22;56411;52.964;10.540;2023-06-14T13:40:24;25.30;89.60
16102;DHT22;56411;52.964;10.540;2023-06-14T13:42:51;25.20;88.60
16102;DHT22;56411;52.964;10.540;2023-06-14T13:45:18;25.20;89.30
16102;DHT22;56411;52.964;10.540;2023-06-14T13:47:45;26.20;88.10
16102;DHT22;56411;52.964;10.540;2023-06-14T13:50:15;26.50;85.10
16102;DHT22;56411;52.964;10.540;2023-06-14T13:52:43;26.40;85.30
16102;DHT22;56411;52.964;10.540;2023-06-14T13:55:10;26.20;85.60
16102;DHT22;56411;52.964;10.540;2023-06-14T13:57:37;26.00;84.60
16102;DHT22;56411;52.964;10.540;2023-06-14T14:00:05;26.10;83.50
16102;DHT22;56411;52.964;10.540;2023-06-14T14:02:34;26.40;85.50
16102;DHT22;56411;52.964;10.540;2023-06-14T14:05:01;27.30;84.50
16102;DHT22;56411;52.964;10.540;2023-06-14T14:07:29;28.90;83.40
16102;DHT22;56411;52.964;10.540;2023-06-14T14:09:56;30.60;79.20
16102;DHT22;56411;52.964;10.540;2023-06-14T14:12:23;31.90;75.00
16102;DHT22;56411;52.964;10.540;2023-06-14T14:14:51;32.40;74.10
16102;DHT22;56411;52.964;10.540;2023-06-14T14:17:18;31.30;73.10
16102;DHT22;56411;52.964;10.540;2023-06-14T14:19:45;29.70;74.20
16102;DHT22;56411;52.964;10.540;2023-06-14T14:22:12;28.40;75.80
16102;DHT22;56411;52.964;10.540;2023-06-14T14:24:40;27.70;77.90
16102;DHT22;56411;52.964;10.540;2023-06-14T14:27:07;27.20;78.10
16102;DHT22;56411;52.964;10.540;2023-06-14T14:29:34;26.90;78.70
16102;DHT22;56411;52.964;10.540;2023-06-14T14:32:01;27.80;78.40
16102;DHT22;56411;52.964;10.540;2023-06-14T14:34:28;29.00;74.70
16102;DHT22;56411;52.964;10.540;2023-06-14T14:36:55;29.50;75.30
16102;DHT22;56411;52.964;10.540;2023-06-14T14:39:22;30.30;74.00
16102;DHT22;56411;52.964;10.540;2023-06-14T14:41:51;31.30;74.20
16102;DHT22;56411;52.964;10.540;2023-06-14T14:44:18;32.60;71.00
16102;DHT22;56411;52.964;10.540;2023-06-14T14:46:45;34.30;67.90
16102;DHT22;56411;52.964;10.540;2023-06-14T14:49:12;35.10;66.70
16102;DHT22;56411;52.964;10.540;2023-06-14T14:51:39;34.80;65.00
16102;DHT22;56411;52.964;10.540;2023-06-14T14:54:06;35.00;61.50
16102;DHT22;56411;52.964;10.540;2023-06-14T14:56:33;34.10;64.00
16102;DHT22;56411;52.964;10.540;2023-06-14T14:59:04;33.80;64.20
16102;DHT22;56411;52.964;10.540;2023-06-14T15:01:31;33.70;62.90
16102;DHT22;56411;52.964;10.540;2023-06-14T15:03:58;33.80;63.00
16102;DHT22;56411;52.964;10.540;2023-06-14T15:06:26;33.90;61.90
16102;DHT22;56411;52.964;10.540;2023-06-14T15:08:53;34.30;62.00
16102;DHT22;56411;52.964;10.540;2023-06-14T15:11:20;34.50;60.60
16102;DHT22;56411;52.964;10.540;2023-06-14T15:13:47;34.90;60.80
16102;DHT22;56411;52.964;10.540;2023-06-14T15:16:17;35.20;58.30
16102;DHT22;56411;52.964;10.540;2023-06-14T15:18:44;35.40;59.40
16102;DHT22;56411;52.964;10.540;2023-06-14T15:21:12;35.70;60.10
16102;DHT22;56411;52.964;10.540;2023-06-14T15:23:39;35.50;58.40
16102;DHT22;56411;52.964;10.540;2023-06-14T15:26:06;34.60;59.10
16102;DHT22;56411;52.964;10.540;2023-06-14T15:28:34;34.10;58.90